Flight Track Log - Related Links

Times and Time Zones

All times are in EDT time to prevent confusion due to time zone crossing. See the EJA396 flight status page for this flight to view local times or setup timezone preferences in your user account.

Time Position Orientation Groundspeed Altitude Reporting Facility
EDT Latitude Longitude Course Direction KTS MPH feet Rate Location/Type
Wed 02:19:12 PM 42.4833 -71.2667 20° North 148 170 1,400  Level KA90
Wed 02:20:00 PM 42.5167 -71.2500 20° North 189 217 2,700 889 Climbing KA90
Wed 02:21:00 PM 42.5167 -71.3167 270° West 220 253 3,000 286 Climbing KA90
Wed 02:22:06 PM 42.4667 -71.3833 225° Southwest 257 296 3,300 1,587 Climbing KA90
Wed 02:23:01 PM 42.4167 -71.4500 225° Southwest 271 312 6,200 3,174 Climbing KA90
Wed 02:24:07 PM 42.3739 -71.5492 240° Southwest 282 325 9,700 1,640 Climbing Boston Center
Wed 02:25:20 PM 42.3228 -71.6764 242° Southwest 348 400 10,000 135 Climbing Boston Center
Wed 02:26:20 PM 42.2778 -71.7892 242° Southwest 347 399 10,000  Level Boston Center
Wed 02:27:21 PM 42.2700 -71.9156 265° West 332 382 10,000  Level Boston Center
Wed 02:28:09 PM 42.2725 -72.0081 272° West 331 381 10,000  Level Boston Center
Wed 02:29:23 PM 42.2772 -72.1650 272° West 337 388 10,000  Level Boston Center
Wed 02:29:59 PM 42.2939 -72.2353 288° West 329 379 10,000  Level Boston Center
Wed 02:31:00 PM 42.3253 -72.3475 291° West 315 362 10,000  Level Boston Center
Wed 02:32:00 PM 42.3608 -72.4711 291° West 324 373 10,000  Level Boston Center
Wed 02:32:46 PM 42.3817 -72.5328 295° West 322 371 10,000  Level Boston Center
Wed 02:33:23 PM 42.4106 -72.6228 294° West 326 375 10,000  Level Boston Center
Wed 02:34:24 PM 42.4397 -72.7356 289° West 325 374 10,000  Level Boston Center
Wed 02:35:37 PM 42.4808 -72.8764 292° West 327 376 10,000  Level Boston Center
Wed 02:36:37 PM 42.5158 -72.9894 293° West 330 380 10,000  Level Boston Center
Wed 02:37:38 PM 42.5486 -73.1053 291° West 330 380 10,000 -233 Level Boston Center
Wed 02:38:20 PM 42.5708 -73.1956 289° West 328 377 9,600 -1,096 Descending Boston Center
Wed 02:39:33 PM 42.5889 -73.3172 281° West 273 314 7,900 -1,489 Descending Boston Center
Wed 02:40:33 PM 42.6003 -73.4244 278° West 264 304 6,300 -1,556 Descending Boston Center
Wed 02:41:21 PM 42.5933 -73.5006 263° West 264 304 5,100 -881 Descending Boston Center
Wed 02:42:22 PM 42.5819 -73.5989 261° West 264 304 4,700 -820 Descending Boston Center
Wed 02:43:40 PM 42.5744 -73.7231 265° West 258 297 3,200 -906 Descending Boston Center
Wed 02:44:41 PM 42.5964 -73.8022 291° West 229 264 2,600 -635 Descending Boston Center
Wed 02:45:24 PM 42.6444 -73.8033 359° North 208 239 2,100 -808 Descending Boston Center
Wed 02:46:25 PM 42.6964 -73.8044 359° North 186 214 1,200 -828 Descending Boston Center
Wed 02:47:20 PM 42.7297 -73.8081 355° North 104 120 500 -764 Descending Boston Center

Login

Don't have an account? Register now (free) for customized features, flight alerts, and more!